Terminal Aerodrome Forecast
Issued by NWS

Home | Current Version | Previous Version | Text Only | Print | Product List | Glossary On
Versions: 1 2 3 4 5 6 7 8 9 10 11 12 13 14 15 16 17 18 19 20 21 22 23 24
000
FTAK31 PAJN 230500
TAFAYA
TAF
PAYA 230523Z 2306/2406 10005KT P6SM VCSH BKN040
     FM230800 VRB02KT P6SM SCT050 BKN080
     FM231500 00000KT P6SM SCT100
     FM232000 32005KT P6SM FEW120
      AMD LTD TO CLD VIS AND WIND 2306/2310=

USA.gov is the U.S. government's official web portal to all federal, state and local government web resources and services.